Time;durP1;ratioP1;P1;durP2;ratioP2;P2;SDS_P1;SDS_P2;PMS_P1;PMS_P2;Temp;Humidity;BMP_temperature;BMP_pressure;BME280_temperature;BME280_humidity;BME280_pressure;Samples;Min_cycle;Max_cycle;Signal;HPM_P1;HPM_P2
2021/08/11 00:02:23;;;;;;;9.32;6.05;;;;;;;17.11;64.04;101672.81;10549379;28;20517;-83
2021/08/11 00:07:23;;;;;;;19.02;7.43;;;;;;;17.76;64.75;101790.22;10545982;28;20060;-84
2021/08/11 00:12:24;;;;;;;8.13;5.05;;;;;;;17.66;64.62;101777.03;10505716;28;20480;-83
2021/08/11 00:17:26;;;;;;;16.05;6.72;;;;;;;17.70;64.89;101789.22;10520679;28;20111;-84
2021/08/11 00:22:27;;;;;;;14.25;7.38;;;;;;;17.67;63.94;101784.19;10502549;28;20123;-83
2021/08/11 00:27:28;;;;;;;10.27;6.15;;;;;;;17.56;63.92;101776.69;10502827;28;20450;-84
2021/08/11 00:32:29;;;;;;;13.70;6.88;;;;;;;17.63;64.71;101777.47;10537254;28;20044;-83
2021/08/11 00:37:29;;;;;;;9.52;6.28;;;;;;;17.57;65.11;101781.09;10496602;28;20085;-83
2021/08/11 00:42:30;;;;;;;9.57;6.05;;;;;;;17.56;64.75;101799.44;10531331;28;20455;-82
2021/08/11 00:47:35;;;;;;;12.02;7.82;;;;;;;17.44;63.98;101771.94;10512010;28;20058;-83
2021/08/11 00:52:36;;;;;;;8.52;6.88;;;;;;;17.44;64.87;101780.16;10520665;28;20386;-84
2021/08/11 00:57:37;;;;;;;8.60;7.07;;;;;;;17.44;64.95;101790.25;10502457;28;20028;-84
2021/08/11 01:02:38;;;;;;;12.70;8.95;;;;;;;17.34;65.45;101778.97;10519690;28;20665;-84
2021/08/11 01:07:38;;;;;;;20.23;9.88;;;;;;;17.41;64.96;101796.19;10502271;28;20039;-83
2021/08/11 01:12:39;;;;;;;12.25;6.72;;;;;;;17.38;65.39;101782.94;10515391;28;20123;-83
2021/08/11 01:17:39;;;;;;;9.98;8.80;;;;;;;17.38;65.65;101783.78;10513547;28;20052;-84
2021/08/11 01:22:41;;;;;;;12.80;7.47;;;;;;;17.33;65.48;101780.88;10515874;28;20108;-83
2021/08/11 01:28:03;;;;;;;19.80;9.73;;;;;;;17.33;64.92;101791.81;10511562;28;20174;-83
2021/08/11 01:33:47;;;;;;;14.13;9.88;;;;;;;17.27;63.64;101780.91;10530077;28;20348;-84
2021/08/11 01:38:57;;;;;;;11.70;8.90;;;;;;;17.24;64.67;101787.66;10531108;28;20062;-84
2021/08/11 01:43:58;;;;;;;14.43;10.48;;;;;;;17.24;65.97;101786.84;10498304;28;20028;-83
2021/08/11 01:48:59;;;;;;;14.85;11.18;;;;;;;17.00;65.86;101753.69;10512706;28;20449;-83
2021/08/11 01:54:00;;;;;;;10.10;8.57;;;;;;;17.03;65.46;101757.91;10497360;28;20066;-83
2021/08/11 01:59:01;;;;;;;15.40;11.77;;;;;;;16.92;65.85;101751.22;10530235;28;20123;-84
2021/08/11 02:04:02;;;;;;;17.88;11.32;;;;;;;17.16;65.77;101790.66;10498595;28;20059;-83
2021/08/11 02:09:03;;;;;;;17.75;12.20;;;;;;;17.15;65.63;101802.66;10517060;28;20027;-83
2021/08/11 02:14:03;;;;;;;23.48;11.27;;;;;;;17.06;65.96;101784.81;10533640;28;20488;-83
2021/08/11 02:19:04;;;;;;;12.75;10.82;;;;;;;17.13;66.47;101788.34;10511047;28;20497;-83
2021/08/11 02:24:05;;;;;;;15.32;9.80;;;;;;;16.87;66.26;101743.66;10537205;28;20191;-83
2021/08/11 02:29:21;;;;;;;14.82;9.50;;;;;;;17.08;66.64;101789.03;10522686;28;20467;-83
2021/08/11 02:34:55;;;;;;;32.38;11.43;;;;;;;17.02;66.32;101780.84;10540211;28;20116;-84
2021/08/11 02:40:18;;;;;;;18.50;10.32;;;;;;;17.10;66.27;101781.44;10505159;28;20048;-83
2021/08/11 02:45:19;;;;;;;13.82;10.45;;;;;;;17.07;67.68;101783.75;10474138;28;20039;-84
2021/08/11 02:50:19;;;;;;;12.38;10.35;;;;;;;17.01;67.49;101766.34;10502745;28;20044;-84
2021/08/11 02:55:20;;;;;;;17.58;11.27;;;;;;;17.09;67.81;101778.91;10505239;28;20080;-84
2021/08/11 03:00:20;;;;;;;17.67;10.18;;;;;;;17.09;68.33;101778.91;10503005;28;20043;-83
2021/08/11 03:05:21;;;;;;;21.40;12.15;;;;;;;17.13;68.06;101785.63;10517073;28;20039;-83
2021/08/11 03:10:22;;;;;;;20.08;11.07;;;;;;;17.15;67.59;101772.56;10516555;28;20114;-84
2021/08/11 03:15:22;;;;;;;16.63;12.27;;;;;;;16.91;68.13;101735.84;10517414;28;20066;-84
2021/08/11 03:20:23;;;;;;;19.90;13.80;;;;;;;17.17;67.61;101778.66;10534688;28;20543;-84
2021/08/11 03:25:24;;;;;;;18.52;13.05;;;;;;;17.12;66.83;101779.31;10516553;28;20081;-84
2021/08/11 03:30:24;;;;;;;22.00;12.95;;;;;;;17.06;67.36;101787.56;10516617;28;20038;-84
2021/08/11 03:35:24;;;;;;;20.20;11.85;;;;;;;17.13;67.57;101793.81;10515426;28;20127;-83
2021/08/11 03:40:26;;;;;;;14.30;11.32;;;;;;;16.94;66.55;101774.59;10532509;28;20123;-83
2021/08/11 03:45:27;;;;;;;12.93;10.63;;;;;;;17.12;66.95;101803.94;10533494;28;20177;-84
2021/08/11 03:50:27;;;;;;;24.95;12.68;;;;;;;17.12;67.66;101811.31;10532510;28;20520;-84
2021/08/11 03:55:32;;;;;;;22.63;12.70;;;;;;;16.88;68.29;101766.38;10533239;28;20489;-83
2021/08/11 04:00:32;;;;;;;19.05;13.63;;;;;;;17.06;68.74;101796.59;10534587;28;20055;-83
2021/08/11 04:05:33;;;;;;;20.10;12.90;;;;;;;17.06;68.04;101804.81;10534173;28;20612;-83
2021/08/11 04:10:33;;;;;;;15.57;10.85;;;;;;;17.16;68.79;101807.06;10497627;28;20102;-83
2021/08/11 04:15:34;;;;;;;12.07;10.82;;;;;;;17.08;68.67;101801.88;10514490;28;20056;-84
2021/08/11 04:20:35;;;;;;;15.82;10.82;;;;;;;17.12;69.46;101812.16;10514776;28;20133;-84
2021/08/11 04:25:40;;;;;;;15.85;12.23;;;;;;;17.15;69.11;101810.88;10497341;28;20123;-84
2021/08/11 04:30:41;;;;;;;14.43;10.55;;;;;;;17.09;67.96;101798.06;10532784;28;20401;-85
2021/08/11 04:35:42;;;;;;;15.60;11.55;;;;;;;17.16;68.83;101809.81;10453899;28;20135;-86
2021/08/11 04:40:42;;;;;;;12.52;10.00;;;;;;;17.19;67.75;101812.09;10530059;28;20055;-86
2021/08/11 04:45:43;;;;;;;27.08;12.85;;;;;;;17.07;68.47;101797.44;10516740;28;20478;-86
2021/08/11 04:50:44;;;;;;;15.75;10.43;;;;;;;17.24;68.41;101803.25;10515721;28;20089;-83
2021/08/11 04:55:45;;;;;;;14.63;11.23;;;;;;;17.34;68.36;101809.91;10525205;28;20471;-84
2021/08/11 05:00:46;;;;;;;18.00;11.75;;;;;;;17.43;68.93;101816.81;10492118;28;20082;-85
2021/08/11 05:05:46;;;;;;;22.35;13.60;;;;;;;17.65;68.38;101821.94;10498420;28;20027;-83
2021/08/11 05:10:47;;;;;;;21.00;12.02;;;;;;;17.58;68.25;101789.13;10515478;28;20036;-83
2021/08/11 05:15:48;;;;;;;18.20;11.60;;;;;;;17.93;67.79;101818.78;10515922;28;20234;-86
2021/08/11 05:20:50;;;;;;;18.13;12.43;;;;;;;17.99;67.79;101823.34;10498750;28;20480;-84
2021/08/11 05:25:51;;;;;;;14.75;10.38;;;;;;;18.06;67.64;101809.59;10514201;28;20051;-83
2021/08/11 05:30:53;;;;;;;24.65;13.80;;;;;;;17.88;66.82;101783.00;10496851;28;20047;-84
2021/08/11 05:35:54;;;;;;;19.00;12.02;;;;;;;18.01;68.06;101807.53;10510647;28;20039;-84
2021/08/11 05:40:54;;;;;;;21.73;13.57;;;;;;;18.67;68.07;101830.69;10511315;28;20043;-84
2021/08/11 05:45:55;;;;;;;16.85;11.85;;;;;;;20.18;65.40;101852.66;10497547;28;20131;-83
2021/08/11 05:50:56;;;;;;;23.25;12.25;;;;;;;20.51;64.38;101868.56;10529513;28;20075;-84
2021/08/11 05:55:56;;;;;;;14.05;11.20;;;;;;;20.78;63.82;101868.09;10493938;28;20096;-83
2021/08/11 06:00:57;;;;;;;15.38;9.70;;;;;;;20.76;63.58;101867.47;10511209;28;20343;-83
2021/08/11 06:05:58;;;;;;;20.75;11.48;;;;;;;20.53;63.56;101841.66;10512335;28;20062;-83
2021/08/11 06:10:58;;;;;;;15.48;11.57;;;;;;;20.88;63.18;101871.06;10528252;28;20107;-83
2021/08/11 06:15:59;;;;;;;22.45;12.35;;;;;;;21.22;62.95;101858.28;10534936;28;20416;-83
2021/08/11 06:20:59;;;;;;;28.80;11.98;;;;;;;21.59;62.19;101853.19;10520474;28;20020;-83
2021/08/11 06:26:00;;;;;;;22.80;13.95;;;;;;;21.95;61.88;101883.31;10520669;28;20028;-83
2021/08/11 06:31:00;;;;;;;24.67;14.00;;;;;;;22.38;61.08;101885.44;10503983;28;20032;-83
2021/08/11 06:36:01;;;;;;;16.85;12.75;;;;;;;22.67;60.68;101879.78;10520514;28;20028;-83
2021/08/11 06:41:01;;;;;;;25.58;14.32;;;;;;;22.86;60.67;101877.56;10520019;28;20063;-83
2021/08/11 06:46:01;;;;;;;18.17;11.52;;;;;;;23.55;59.54;101882.53;10538501;28;20032;-83
2021/08/11 06:51:02;;;;;;;17.15;11.48;;;;;;;23.16;59.71;101843.97;10503709;28;20107;-83
2021/08/11 06:56:03;;;;;;;14.85;11.32;;;;;;;23.23;59.01;101876.91;10520397;28;20059;-82
2021/08/11 07:01:04;;;;;;;16.48;11.95;;;;;;;23.80;58.23;101877.28;10520481;28;20032;-83
2021/08/11 07:06:04;;;;;;;14.00;11.63;;;;;;;23.80;58.88;101882.81;10520240;28;20044;-83
2021/08/11 07:11:05;;;;;;;29.40;12.70;;;;;;;23.72;59.18;101888.00;10527612;28;20118;-82
2021/08/11 07:16:05;;;;;;;18.98;12.35;;;;;;;23.90;57.47;101876.56;10545493;28;20055;-83
2021/08/11 07:21:05;;;;;;;16.33;11.80;;;;;;;24.48;57.44;101885.88;10545615;28;20047;-83
2021/08/11 07:26:08;;;;;;;16.88;11.05;;;;;;;25.27;56.91;101879.38;10526802;28;20126;-83
2021/08/11 07:31:08;;;;;;;19.13;10.20;;;;;;;26.06;54.46;101890.31;10510542;28;20032;-83
2021/08/11 07:36:08;;;;;;;20.95;11.20;;;;;;;26.47;53.19;101870.84;10526715;28;20455;-83
2021/08/11 07:41:09;;;;;;;21.85;12.65;;;;;;;26.76;54.40;101879.38;10543479;28;20102;-83
2021/08/11 07:46:09;;;;;;;14.32;10.98;;;;;;;25.58;54.40;101890.50;10526229;28;20059;-83
2021/08/11 07:51:10;;;;;;;17.58;11.88;;;;;;;24.67;57.85;101888.22;10525858;28;20024;-82
2021/08/11 07:56:10;;;;;;;14.57;11.25;;;;;;;25.97;55.36;101893.66;10525788;28;20492;-83
2021/08/11 08:01:11;;;;;;;16.98;10.90;;;;;;;26.07;56.10;101864.19;10543541;28;20063;-83
2021/08/11 08:06:11;;;;;;;12.88;11.32;;;;;;;25.06;56.44;101900.59;10543369;28;20134;-83
2021/08/11 08:11:11;;;;;;;17.40;12.23;;;;;;;25.05;56.19;101895.31;10542778;28;20456;-82
2021/08/11 08:16:13;;;;;;;19.17;13.57;;;;;;;25.44;55.34;101894.94;10525543;28;20432;-83
2021/08/11 08:21:14;;;;;;;24.40;11.30;;;;;;;25.40;53.90;101897.41;10542962;28;20035;-83
2021/08/11 08:26:14;;;;;;;12.00;10.18;;;;;;;25.42;55.08;101886.03;10542606;28;20020;-83
2021/08/11 08:31:15;;;;;;;14.20;10.20;;;;;;;25.99;54.04;101898.91;10524022;28;20039;-83
2021/08/11 08:36:16;;;;;;;13.27;9.93;;;;;;;25.53;52.36;101882.19;10523780;28;20020;-83
2021/08/11 08:41:18;;;;;;;9.30;8.35;;;;;;;25.74;51.37;101899.69;10524182;28;20062;-82
2021/08/11 08:46:19;;;;;;;10.18;9.27;;;;;;;26.34;53.42;101897.25;10507548;28;20028;-83
2021/08/11 08:51:21;;;;;;;16.52;9.43;;;;;;;26.69;54.20;101870.53;10508362;28;20397;-82
2021/08/11 08:56:22;;;;;;;20.30;8.70;;;;;;;26.95;52.80;101886.00;10526957;28;20455;-82
2021/08/11 09:01:24;;;;;;;12.27;7.20;;;;;;;28.17;49.03;101901.13;10527218;28;20032;-82
2021/08/11 09:06:27;;;;;;;12.38;7.13;;;;;;;28.81;49.91;101907.47;10533107;28;20352;-82
2021/08/11 09:11:27;;;;;;;11.85;8.98;;;;;;;28.89;47.66;101901.25;10508408;28;20028;-83
2021/08/11 09:16:28;;;;;;;9.60;7.43;;;;;;;29.28;45.01;101894.63;10522603;28;20126;-83
2021/08/11 09:21:28;;;;;;;7.15;6.45;;;;;;;29.75;42.97;101890.06;10523270;28;20032;-83
2021/08/11 09:26:37;;;;;;;15.55;7.03;;;;;;;30.47;45.72;101872.06;10540391;28;20410;-82
2021/08/11 09:31:37;;;;;;;6.70;6.05;;;;;;;30.29;48.17;101899.81;10522187;28;20459;-82
2021/08/11 09:36:43;;;;;;;6.85;6.18;;;;;;;29.21;46.36;101880.22;10522032;28;20059;-82
2021/08/11 09:42:00;;;;;;;7.30;5.93;;;;;;;29.57;45.90;101877.75;10521292;28;20479;-82
2021/08/11 09:47:10;;;;;;;9.88;7.93;;;;;;;29.85;45.67;101887.09;10521749;28;20408;-83
2021/08/11 09:52:10;;;;;;;15.38;8.93;;;;;;;30.11;43.51;101898.66;10522076;28;20038;-83
2021/08/11 09:57:28;;;;;;;6.82;6.20;;;;;;;31.37;48.33;101906.91;10539654;28;20036;-83
2021/08/11 10:02:29;;;;;;;10.32;7.75;;;;;;;30.70;45.66;101912.19;10489280;28;20043;-82
2021/08/11 10:07:29;;;;;;;7.22;6.47;;;;;;;31.38;42.18;101916.13;10538992;28;20024;-82
2021/08/11 10:12:31;;;;;;;8.27;7.43;;;;;;;31.94;41.56;101921.28;10539271;28;20035;-83
2021/08/11 10:17:36;;;;;;;9.15;7.13;;;;;;;31.70;41.63;101904.72;10521338;28;20039;-82
2021/08/11 10:22:39;;;;;;;13.18;8.73;;;;;;;29.94;42.78;101925.53;10539494;28;20036;-82
2021/08/11 10:27:44;;;;;;;7.88;7.05;;;;;;;30.51;44.52;101907.50;10487616;28;20054;-82
2021/08/11 10:32:44;;;;;;;12.20;7.88;;;;;;;31.19;40.09;101917.06;10539630;28;20043;-82
2021/08/11 10:37:45;;;;;;;24.65;6.90;;;;;;;32.16;43.29;101925.19;10519742;28;20107;-82
2021/08/11 10:42:56;;;;;;;7.80;5.68;;;;;;;32.69;40.82;101920.75;10505871;28;20060;-82
2021/08/11 10:47:56;;;;;;;5.72;5.22;;;;;;;32.36;39.99;101893.03;10530115;28;20024;-82
2021/08/11 10:53:07;;;;;;;7.63;4.68;;;;;;;32.59;45.65;101905.88;10511989;28;20020;-82
2021/08/11 10:58:07;;;;;;;9.05;6.22;;;;;;;32.03;40.13;101924.13;10546547;28;20436;-82
2021/08/11 11:03:08;;;;;;;11.00;6.10;;;;;;;32.63;42.45;101926.50;10510907;28;20085;-82
2021/08/11 11:08:13;;;;;;;6.13;5.63;;;;;;;33.17;38.81;101925.56;10545557;28;20528;-82
2021/08/11 11:13:39;;;;;;;6.88;6.15;;;;;;;32.88;42.09;101944.59;10546590;28;20123;-82
2021/08/11 11:18:41;;;;;;;;;;;;;;;33.18;43.02;101944.03;10541497;28;20109;-82
2021/08/11 11:23:42;;;;;;;7.13;4.93;;;;;;;33.17;40.06;101942.41;10505865;28;19912;-82
2021/08/11 11:29:18;;;;;;;8.57;6.90;;;;;;;33.72;41.75;101948.28;10523851;28;20470;-81
2021/08/11 11:34:20;;;;;;;4.77;4.37;;;;;;;33.56;39.72;101945.13;10530593;28;20044;-82
2021/08/11 11:39:27;;;;;;;7.80;4.70;;;;;;;33.41;37.06;101917.53;10540828;28;20335;-82
2021/08/11 11:44:46;;;;;;;8.00;7.32;;;;;;;33.91;46.32;101942.34;10524823;28;20032;-81
2021/08/11 11:49:47;;;;;;;7.13;6.47;;;;;;;34.41;38.35;101926.91;10543556;28;20084;-81
2021/08/11 11:54:48;;;;;;;7.85;7.03;;;;;;;32.95;38.89;101932.06;10508761;28;20084;-81
2021/08/11 11:59:49;;;;;;;14.32;8.35;;;;;;;32.44;38.65;101925.91;10542200;28;20035;-81
2021/08/11 12:05:03;;;;;;;8.38;7.22;;;;;;;32.85;39.77;101894.72;10489419;28;20409;-81
2021/08/11 12:10:04;;;;;;;10.35;7.35;;;;;;;32.99;37.87;101935.91;10521620;28;20031;-82
2021/08/11 12:15:17;;;;;;;8.23;6.85;;;;;;;32.57;43.27;101922.16;10488581;28;20044;-82
2021/08/11 12:20:45;;;;;;;7.05;5.57;;;;;;;32.07;42.17;101919.56;10541928;28;20024;-82
2021/08/11 12:25:50;;;;;;;8.48;7.13;;;;;;;33.03;40.86;101926.53;10536905;28;20040;-81
2021/08/11 12:30:55;;;;;;;7.50;6.47;;;;;;;32.73;40.44;101931.00;10524165;28;20605;-81
2021/08/11 12:35:56;;;;;;;7.28;5.43;;;;;;;33.47;38.82;101924.63;10508339;28;20024;-81
2021/08/11 12:40:57;;;;;;;13.00;7.45;;;;;;;34.06;38.66;101926.16;10524825;28;20043;-81
2021/08/11 12:46:00;;;;;;;7.90;5.90;;;;;;;34.58;38.74;101931.69;10524632;28;20380;-81
2021/08/11 12:51:06;;;;;;;6.18;5.57;;;;;;;34.22;39.38;101899.19;10542515;28;20057;-81
2021/08/11 12:56:07;;;;;;;;;;;;;;;34.61;45.15;101922.56;10525246;28;20026;-81
2021/08/11 13:01:08;;;;;;;7.45;6.20;;;;;;;33.27;37.31;101922.44;10544366;28;20381;-81
2021/08/11 13:06:09;;;;;;;10.43;6.05;;;;;;;33.11;37.77;101908.03;10541911;28;20094;-81
2021/08/11 13:11:10;;;;;;;9.13;7.20;;;;;;;33.76;40.67;101911.94;10510077;28;20042;-81
2021/08/11 13:16:14;;;;;;;15.02;6.57;;;;;;;33.88;37.03;101908.47;10528116;28;20052;-81
2021/08/11 13:21:14;;;;;;;17.23;6.28;;;;;;;34.12;37.54;101900.34;10548016;28;20040;-80
2021/08/11 13:26:17;;;;;;;13.53;6.80;;;;;;;34.30;36.89;101915.19;10515200;28;20024;-81
2021/08/11 13:31:18;;;;;;;7.30;6.60;;;;;;;33.88;38.56;101895.22;10541403;28;20437;-81
2021/08/11 13:36:18;;;;;;;10.10;5.93;;;;;;;33.15;40.32;101909.03;10523119;28;20112;-81
2021/08/11 13:41:19;;;;;;;12.63;6.53;;;;;;;32.38;40.54;101897.13;10521990;28;20043;-81
2021/08/11 13:46:21;;;;;;;5.85;5.35;;;;;;;32.67;40.79;101864.97;10521914;28;20024;-81
2021/08/11 13:51:21;;;;;;;6.05;5.55;;;;;;;33.15;40.15;101911.84;10522022;28;20051;-81
2021/08/11 13:56:24;;;;;;;10.60;6.93;;;;;;;33.02;40.88;101902.41;10521758;28;20024;-81
2021/08/11 14:01:24;;;;;;;5.90;5.47;;;;;;;32.97;39.11;101896.97;10539869;28;20391;-81
2021/08/11 14:06:25;;;;;;;9.07;6.22;;;;;;;33.02;39.79;101908.00;10539643;28;20028;-81
2021/08/11 14:11:26;;;;;;;5.78;5.20;;;;;;;33.07;39.80;101899.44;10539049;28;20446;-81
2021/08/11 14:16:27;;;;;;;14.65;5.35;;;;;;;32.60;39.48;101845.81;10541436;28;20139;-81
2021/08/11 14:21:29;;;;;;;10.07;5.15;;;;;;;32.67;39.29;101886.59;10553008;28;20032;-81
2021/08/11 14:26:29;;;;;;;6.97;4.20;;;;;;;32.31;39.60;101884.75;10553296;28;20525;-81
2021/08/11 14:31:30;;;;;;;5.13;4.78;;;;;;;32.27;39.75;101884.56;10534897;28;20126;-81
2021/08/11 14:36:30;;;;;;;8.48;4.45;;;;;;;32.01;39.66;101898.41;10554011;28;20024;-81
2021/08/11 14:41:30;;;;;;;5.93;4.18;;;;;;;31.06;39.77;101808.81;10552120;28;20036;-81
2021/08/11 14:46:31;;;;;;;7.78;4.00;;;;;;;31.40;40.57;101883.06;10552716;28;20028;-81
2021/08/11 14:51:31;;;;;;;4.35;4.10;;;;;;;31.24;40.19;101894.56;10534707;28;20394;-81
2021/08/11 14:56:32;;;;;;;5.93;4.13;;;;;;;30.93;40.84;101883.22;10534595;28;20115;-81
2021/08/11 15:01:32;;;;;;;5.45;4.72;;;;;;;30.91;42.17;101885.47;10553188;28;20121;-81
2021/08/11 15:06:35;;;;;;;7.32;4.57;;;;;;;30.68;40.67;101890.13;10553131;28;20032;-81
2021/08/11 15:11:35;;;;;;;4.95;4.45;;;;;;;30.39;41.59;101892.38;10551792;28;20364;-81
2021/08/11 15:16:37;;;;;;;5.90;3.78;;;;;;;30.69;40.74;101891.75;10533904;28;20048;-81
2021/08/11 15:21:37;;;;;;;4.38;3.17;;;;;;;30.29;40.87;101891.41;10552230;28;20122;-81
2021/08/11 15:26:38;;;;;;;15.38;3.95;;;;;;;30.37;41.19;101889.88;10534294;28;20028;-81
2021/08/11 15:31:38;;;;;;;3.85;3.58;;;;;;;29.98;40.84;101891.09;10526685;28;20416;-81
2021/08/11 15:36:38;;;;;;;5.35;3.72;;;;;;;30.05;40.13;101888.72;10526461;28;20020;-81
2021/08/11 15:41:39;;;;;;;4.50;3.35;;;;;;;29.90;40.75;101875.03;10526173;28;20131;-81
2021/08/11 15:46:39;;;;;;;3.00;2.72;;;;;;;29.87;41.79;101879.25;10544510;28;20111;-81
2021/08/11 15:51:40;;;;;;;18.13;4.00;;;;;;;29.56;40.12;101847.34;10510161;28;20028;-81
2021/08/11 15:56:40;;;;;;;5.80;4.03;;;;;;;29.58;41.05;101868.25;10526223;28;20595;-81
2021/08/11 16:01:41;;;;;;;4.10;3.78;;;;;;;29.68;43.06;101867.31;10544753;28;20411;-82
2021/08/11 16:06:41;;;;;;;4.47;4.00;;;;;;;29.38;42.94;101872.16;10544816;28;20027;-82
2021/08/11 16:11:42;;;;;;;17.15;4.43;;;;;;;28.93;42.24;101868.84;10525885;28;20460;-82
2021/08/11 16:16:42;;;;;;;4.82;3.90;;;;;;;28.30;43.45;101874.53;10544180;28;20051;-81
2021/08/11 16:21:43;;;;;;;8.85;3.72;;;;;;;27.69;43.92;101848.03;10543680;28;20051;-82
2021/08/11 16:26:43;;;;;;;3.95;3.58;;;;;;;27.33;46.21;101887.22;10543403;28;20538;-82
2021/08/11 16:31:45;;;;;;;5.47;4.25;;;;;;;26.79;45.89;101865.75;10508443;28;20050;-82
2021/08/11 16:36:45;;;;;;;7.32;4.28;;;;;;;26.60;47.00;101890.53;10543352;28;20028;-82
2021/08/11 16:41:45;;;;;;;5.05;3.75;;;;;;;26.13;47.58;101900.03;10541099;28;20032;-82
2021/08/11 16:46:46;;;;;;;4.18;3.78;;;;;;;26.07;46.76;101870.63;10524986;28;20078;-82
2021/08/11 16:51:46;;;;;;;5.43;3.50;;;;;;;25.54;47.46;101825.59;10524045;28;20107;-82
2021/08/11 16:56:47;;;;;;;4.05;3.75;;;;;;;25.62;48.01;101886.09;10507335;28;20028;-83
2021/08/11 17:01:47;;;;;;;6.15;4.30;;;;;;;25.43;48.46;101887.69;10542047;28;20452;-82
2021/08/11 17:06:48;;;;;;;4.43;3.92;;;;;;;25.37;48.54;101889.66;10523894;28;20032;-83
2021/08/11 17:11:48;;;;;;;6.88;5.10;;;;;;;25.17;49.01;101900.66;10506188;28;20051;-83
2021/08/11 17:16:48;;;;;;;4.43;4.03;;;;;;;25.04;49.27;101896.41;10506469;28;20072;-83
2021/08/11 17:21:49;;;;;;;8.85;5.90;;;;;;;24.96;48.98;101891.41;10541622;28;20486;-83
2021/08/11 17:26:49;;;;;;;8.65;4.88;;;;;;;24.67;49.14;101897.34;10540661;28;20032;-83
2021/08/11 17:31:49;;;;;;;15.02;5.50;;;;;;;24.21;49.27;101821.44;10540458;28;20036;-82
2021/08/11 17:36:50;;;;;;;7.55;5.30;;;;;;;24.08;49.36;101844.84;10540314;28;20340;-83
2021/08/11 17:41:50;;;;;;;16.80;4.47;;;;;;;24.27;50.02;101884.84;10539653;28;20060;-83
2021/08/11 17:46:51;;;;;;;6.60;4.28;;;;;;;23.55;50.10;101769.19;10540451;28;20062;-83
2021/08/11 17:51:51;;;;;;;5.57;4.63;;;;;;;24.02;50.45;101859.75;10522425;28;20479;-83
2021/08/11 17:56:52;;;;;;;10.02;4.70;;;;;;;24.05;50.02;101862.81;10548651;28;20028;-82
2021/08/11 18:01:52;;;;;;;5.60;5.07;;;;;;;24.01;50.10;101871.94;10539722;28;20552;-82
2021/08/11 18:06:52;;;;;;;7.93;3.95;;;;;;;23.80;50.09;101866.22;10521193;28;20028;-82
2021/08/11 18:11:53;;;;;;;5.70;4.57;;;;;;;23.44;50.05;101823.53;10521157;28;20066;-83
2021/08/11 18:16:53;;;;;;;8.25;4.68;;;;;;;23.69;50.28;101886.56;10538615;28;20446;-82
2021/08/11 18:21:54;;;;;;;7.45;4.22;;;;;;;23.57;50.67;101885.88;10520886;28;20062;-83
2021/08/11 18:26:54;;;;;;;8.55;3.50;;;;;;;23.46;50.37;101892.41;10520717;28;20537;-83
2021/08/11 18:31:54;;;;;;;4.55;4.05;;;;;;;23.40;50.53;101886.81;10538622;28;20032;-83
2021/08/11 18:36:55;;;;;;;8.27;4.05;;;;;;;23.25;50.67;101883.03;10538850;28;20024;-83
2021/08/11 18:41:55;;;;;;;8.27;4.28;;;;;;;23.13;50.86;101888.69;10538236;28;20060;-83
2021/08/11 18:46:57;;;;;;;6.38;4.30;;;;;;;23.09;50.75;101882.00;10538519;28;20039;-82
2021/08/11 18:51:58;;;;;;;7.78;3.10;;;;;;;22.22;50.73;101787.78;10520719;28;20043;-79
2021/08/11 18:56:58;;;;;;;5.75;3.30;;;;;;;22.75;50.90;101887.63;10537156;28;20043;-79
2021/08/11 19:01:58;;;;;;;4.35;2.97;;;;;;;22.61;51.80;101886.31;10538182;28;20128;-79
2021/08/11 19:06:59;;;;;;;6.65;4.00;;;;;;;22.48;51.76;101899.38;10526614;28;20036;-79
2021/08/11 19:12:00;;;;;;;6.03;3.80;;;;;;;22.16;51.76;101884.53;10527035;28;20055;-80
2021/08/11 19:17:01;;;;;;;4.60;4.15;;;;;;;22.20;51.99;101907.75;10526868;28;20139;-79
2021/08/11 19:22:02;;;;;;;6.05;4.22;;;;;;;22.13;52.32;101926.38;10526825;28;20056;-79
2021/08/11 19:27:04;;;;;;;3.50;3.25;;;;;;;22.01;52.56;101921.75;10509429;28;20043;-78
2021/08/11 19:32:07;;;;;;;5.45;4.38;;;;;;;21.70;52.83;101909.38;10544423;28;20123;-80
2021/08/11 19:37:07;;;;;;;10.63;3.88;;;;;;;21.59;53.32;101919.34;10522536;28;20032;-79
2021/08/11 19:42:08;;;;;;;5.85;4.47;;;;;;;21.40;53.81;101904.09;10525252;28;20036;-80
2021/08/11 19:47:09;;;;;;;6.13;4.55;;;;;;;21.37;54.13;101934.88;10540917;28;20387;-78
2021/08/11 19:52:10;;;;;;;8.05;4.15;;;;;;;21.21;54.52;101952.16;10539532;28;20107;-78
2021/08/11 19:57:10;;;;;;;7.22;3.58;;;;;;;21.05;54.72;101951.81;10521073;28;20036;-84
2021/08/11 20:02:11;;;;;;;9.00;3.90;;;;;;;21.00;55.04;101942.63;10487425;28;20040;-84
2021/08/11 20:07:11;;;;;;;10.00;4.78;;;;;;;20.65;55.15;101921.47;10479243;28;20033;-83
2021/08/11 20:12:12;;;;;;;10.35;4.53;;;;;;;20.61;55.57;101939.53;10518213;28;20540;-84
2021/08/11 20:17:13;;;;;;;5.82;4.10;;;;;;;20.36;55.90;101934.25;10521823;28;20102;-83
2021/08/11 20:22:14;;;;;;;10.63;5.20;;;;;;;20.39;56.84;101956.59;10520570;28;20078;-83
2021/08/11 20:27:14;;;;;;;7.43;5.68;;;;;;;20.37;56.54;101966.16;10537858;28;20114;-83
2021/08/11 20:32:15;;;;;;;10.35;4.47;;;;;;;20.35;56.52;101974.66;10536533;28;20060;-85
2021/08/11 20:37:15;;;;;;;8.93;4.18;;;;;;;20.23;56.83;101961.94;10519753;28;20446;-82
2021/08/11 20:42:16;;;;;;;7.25;5.05;;;;;;;20.21;56.98;101968.53;10519965;28;20112;-83
2021/08/11 20:47:16;;;;;;;11.30;5.13;;;;;;;20.14;57.04;101965.06;10539729;28;20059;-83
2021/08/11 20:52:19;;;;;;;8.52;3.95;;;;;;;20.07;57.34;101969.81;10540721;28;20097;-83
2021/08/11 20:57:19;;;;;;;6.13;4.50;;;;;;;19.70;57.85;101925.94;10521338;28;20063;-82
2021/08/11 21:02:20;;;;;;;5.65;4.40;;;;;;;19.94;57.52;101990.09;10538652;28;20063;-82
2021/08/11 21:07:20;;;;;;;5.57;4.85;;;;;;;19.90;58.04;101966.88;10520914;28;20195;-82
2021/08/11 21:12:21;;;;;;;5.07;4.43;;;;;;;19.82;58.24;101958.16;10518320;28;20118;-83
2021/08/11 21:17:21;;;;;;;5.93;4.43;;;;;;;19.71;58.91;101962.50;10502182;28;20119;-83
2021/08/11 21:22:21;;;;;;;5.38;4.28;;;;;;;19.55;58.63;101960.38;10518174;28;20553;-83
2021/08/11 21:27:22;;;;;;;9.52;5.10;;;;;;;19.52;59.36;101953.44;10517781;28;20028;-82
2021/08/11 21:32:22;;;;;;;6.80;4.85;;;;;;;19.22;59.35;101914.94;10502899;28;20040;-84
2021/08/11 21:37:24;;;;;;;9.25;5.03;;;;;;;19.44;58.98;101951.84;10518115;28;20032;-82
2021/08/11 21:42:24;;;;;;;6.93;5.13;;;;;;;19.41;59.43;101960.53;10517215;28;20074;-82
2021/08/11 21:47:25;;;;;;;12.15;5.90;;;;;;;19.25;58.92;101948.28;10536246;28;20485;-83
2021/08/11 21:52:26;;;;;;;5.10;4.72;;;;;;;19.22;59.40;101948.75;10501539;28;20047;-83
2021/08/11 21:57:26;;;;;;;5.82;5.32;;;;;;;19.24;59.53;101952.09;10504791;28;20064;-82
2021/08/11 22:02:27;;;;;;;9.82;6.25;;;;;;;19.11;60.09;101934.94;10538655;28;20111;-84
2021/08/11 22:07:27;;;;;;;10.35;6.50;;;;;;;19.15;59.72;101949.91;10520911;28;20430;-83
2021/08/11 22:12:28;;;;;;;10.02;7.57;;;;;;;19.08;60.63;101943.63;10537003;28;20119;-84
2021/08/11 22:17:28;;;;;;;21.95;9.90;;;;;;;19.11;60.43;101945.91;10519031;28;20478;-84
2021/08/11 22:22:28;;;;;;;9.60;6.40;;;;;;;19.09;60.57;101953.56;10534981;28;20043;-84
2021/08/11 22:27:29;;;;;;;15.05;7.30;;;;;;;18.95;60.96;101950.09;10516454;28;20466;-84
2021/08/11 22:32:30;;;;;;;31.90;21.35;;;;;;;18.61;60.77;101886.47;10533430;28;20044;-84
2021/08/11 22:37:30;;;;;;;16.42;11.93;;;;;;;18.98;60.57;101957.88;10517533;28;20123;-84
2021/08/11 22:42:30;;;;;;;10.40;9.30;;;;;;;18.94;60.39;101954.75;10542384;28;20162;-84
2021/08/11 22:47:32;;;;;;;18.33;11.25;;;;;;;18.95;60.83;101952.84;10508338;28;20036;-84
2021/08/11 22:52:32;;;;;;;13.43;8.50;;;;;;;18.95;60.86;101961.94;10541404;28;20040;-84
2021/08/11 22:57:33;;;;;;;11.43;9.43;;;;;;;18.44;60.40;101877.13;10542457;28;20032;-83